Terminal Aerodrome Forecast
Issued by NWS Duluth, MN

Home | Current Version | Previous Version | Text Only | Print | Product List | Glossary On
Versions: 1 2 3 4 5 6 7 8 9 10 11 12 13 14 15 16 17 18 19 20 21 22 23 24 25 26 27 28 29
557
FTUS43 KDLH 151733
TAFINL
TAF
KINL 151733Z 1518/1618 00000KT P6SM BKN012
     FM160000 09004KT P6SM BKN035
     FM160700 11006KT 5SM -SN BKN019
     FM161100 11006KT 3SM -SN OVC013
     FM161500 11006KT 2SM -SN OVC010=

USA.gov is the U.S. government's official web portal to all federal, state and local government web resources and services.